Terminal Aerodrome Forecast
Issued by NWS Duluth, MN

Home | Current Version | Previous Version | Text Only | Print | Product List | Glossary On
Versions: 1 2 3 4 5 6 7 8 9 10 11 12 13 14 15 16 17 18
000
FTUS43 KDLH 291100
TAFINL
TAF
KINL 291138Z 2912/3012 16004KT 6SM -RA SCT008 BKN012 OVC080
      TEMPO 2912/2915 4SM -RA BR OVC008
     FM291500 13005KT P6SM OVC009
     FM291800 12004KT P6SM BKN015 OVC050
     FM292100 15004KT P6SM VCSH BKN035 OVC060
      TEMPO 2922/3002 5SM TSRA BKN015CB OVC035
     FM300600 VRB03KT 6SM BR BKN012=

USA.gov is the U.S. government's official web portal to all federal, state and local government web resources and services.